sensor_id;sensor_type;location;lat;lon;timestamp;P1;durP1;ratioP1;P2;durP2;ratioP2
9178;SDS011;71287;48.414;11.478;2023-07-20T00:02:21;4.57;;;2.63;;
9178;SDS011;71287;48.414;11.478;2023-07-20T00:04:48;2.60;;;2.30;;
9178;SDS011;71287;48.414;11.478;2023-07-20T00:07:15;4.10;;;2.23;;
9178;SDS011;71287;48.414;11.478;2023-07-20T00:09:41;3.97;;;2.10;;
9178;SDS011;71287;48.414;11.478;2023-07-20T00:12:10;2.80;;;2.00;;
9178;SDS011;71287;48.414;11.478;2023-07-20T00:14:37;2.57;;;1.70;;
9178;SDS011;71287;48.414;11.478;2023-07-20T00:17:03;2.47;;;1.93;;
9178;SDS011;71287;48.414;11.478;2023-07-20T00:19:31;2.83;;;2.00;;
9178;SDS011;71287;48.414;11.478;2023-07-20T00:21:58;2.40;;;1.80;;
9178;SDS011;71287;48.414;11.478;2023-07-20T00:24:25;4.20;;;1.90;;
9178;SDS011;71287;48.414;11.478;2023-07-20T00:26:52;4.03;;;2.23;;
9178;SDS011;71287;48.414;11.478;2023-07-20T00:29:20;5.27;;;2.13;;
9178;SDS011;71287;48.414;11.478;2023-07-20T00:31:47;5.93;;;2.13;;
9178;SDS011;71287;48.414;11.478;2023-07-20T00:34:14;1.90;;;1.80;;
9178;SDS011;71287;48.414;11.478;2023-07-20T00:36:40;3.70;;;1.97;;
9178;SDS011;71287;48.414;11.478;2023-07-20T00:39:07;4.20;;;1.80;;
9178;SDS011;71287;48.414;11.478;2023-07-20T00:41:34;2.90;;;1.73;;
9178;SDS011;71287;48.414;11.478;2023-07-20T00:44:01;3.67;;;1.83;;
9178;SDS011;71287;48.414;11.478;2023-07-20T00:46:29;3.13;;;2.30;;
9178;SDS011;71287;48.414;11.478;2023-07-20T00:48:57;3.10;;;1.77;;
9178;SDS011;71287;48.414;11.478;2023-07-20T00:51:24;1.93;;;1.73;;
9178;SDS011;71287;48.414;11.478;2023-07-20T00:53:52;3.77;;;1.80;;
9178;SDS011;71287;48.414;11.478;2023-07-20T00:56:19;3.03;;;1.57;;
9178;SDS011;71287;48.414;11.478;2023-07-20T00:58:47;2.37;;;1.60;;
9178;SDS011;71287;48.414;11.478;2023-07-20T01:01:14;3.67;;;1.60;;
9178;SDS011;71287;48.414;11.478;2023-07-20T01:03:42;1.50;;;1.40;;
9178;SDS011;71287;48.414;11.478;2023-07-20T01:06:11;4.53;;;1.67;;
9178;SDS011;71287;48.414;11.478;2023-07-20T01:08:51;2.00;;;1.47;;
9178;SDS011;71287;48.414;11.478;2023-07-20T01:11:28;2.57;;;1.80;;
9178;SDS011;71287;48.414;11.478;2023-07-20T01:14:02;3.60;;;1.57;;
9178;SDS011;71287;48.414;11.478;2023-07-20T01:16:29;4.00;;;1.60;;
9178;SDS011;71287;48.414;11.478;2023-07-20T01:18:57;4.60;;;1.90;;
9178;SDS011;71287;48.414;11.478;2023-07-20T01:21:26;4.33;;;1.90;;
9178;SDS011;71287;48.414;11.478;2023-07-20T01:27:00;4.93;;;1.47;;
9178;SDS011;71287;48.414;11.478;2023-07-20T01:29:48;6.10;;;1.80;;
9178;SDS011;71287;48.414;11.478;2023-07-20T01:32:28;2.00;;;1.80;;
9178;SDS011;71287;48.414;11.478;2023-07-20T01:34:57;2.20;;;1.70;;
9178;SDS011;71287;48.414;11.478;2023-07-20T01:37:25;2.67;;;1.80;;
9178;SDS011;71287;48.414;11.478;2023-07-20T01:39:54;1.43;;;1.33;;
9178;SDS011;71287;48.414;11.478;2023-07-20T01:42:22;2.50;;;1.50;;
9178;SDS011;71287;48.414;11.478;2023-07-20T01:44:50;2.63;;;1.70;;
9178;SDS011;71287;48.414;11.478;2023-07-20T01:47:17;4.80;;;1.53;;
9178;SDS011;71287;48.414;11.478;2023-07-20T01:49:45;1.87;;;1.43;;
9178;SDS011;71287;48.414;11.478;2023-07-20T01:52:12;1.93;;;1.43;;
9178;SDS011;71287;48.414;11.478;2023-07-20T01:54:40;1.57;;;1.47;;
9178;SDS011;71287;48.414;11.478;2023-07-20T01:57:07;1.83;;;1.17;;
9178;SDS011;71287;48.414;11.478;2023-07-20T01:59:33;2.40;;;1.57;;
9178;SDS011;71287;48.414;11.478;2023-07-20T02:02:00;2.10;;;1.43;;
9178;SDS011;71287;48.414;11.478;2023-07-20T02:04:27;3.27;;;1.37;;
9178;SDS011;71287;48.414;11.478;2023-07-20T02:06:55;1.33;;;1.23;;
9178;SDS011;71287;48.414;11.478;2023-07-20T02:09:22;4.00;;;1.10;;
9178;SDS011;71287;48.414;11.478;2023-07-20T02:11:49;2.17;;;1.23;;
9178;SDS011;71287;48.414;11.478;2023-07-20T02:14:16;5.40;;;1.30;;
9178;SDS011;71287;48.414;11.478;2023-07-20T02:16:43;1.93;;;1.00;;
9178;SDS011;71287;48.414;11.478;2023-07-20T02:19:09;1.60;;;1.23;;
9178;SDS011;71287;48.414;11.478;2023-07-20T02:21:36;2.37;;;1.30;;
9178;SDS011;71287;48.414;11.478;2023-07-20T02:24:05;3.57;;;1.20;;
9178;SDS011;71287;48.414;11.478;2023-07-20T02:26:32;1.50;;;1.30;;
9178;SDS011;71287;48.414;11.478;2023-07-20T02:28:59;2.23;;;1.30;;
9178;SDS011;71287;48.414;11.478;2023-07-20T02:31:25;2.10;;;1.27;;
9178;SDS011;71287;48.414;11.478;2023-07-20T02:33:52;5.47;;;1.60;;
9178;SDS011;71287;48.414;11.478;2023-07-20T02:36:19;2.30;;;1.40;;
9178;SDS011;71287;48.414;11.478;2023-07-20T02:38:46;2.67;;;1.37;;
9178;SDS011;71287;48.414;11.478;2023-07-20T02:41:14;4.60;;;1.77;;
9178;SDS011;71287;48.414;11.478;2023-07-20T02:43:41;2.43;;;1.30;;
9178;SDS011;71287;48.414;11.478;2023-07-20T02:46:07;1.83;;;1.20;;
9178;SDS011;71287;48.414;11.478;2023-07-20T02:48:34;2.20;;;1.17;;
9178;SDS011;71287;48.414;11.478;2023-07-20T02:51:01;4.30;;;1.20;;
9178;SDS011;71287;48.414;11.478;2023-07-20T02:53:28;6.07;;;1.50;;
9178;SDS011;71287;48.414;11.478;2023-07-20T02:55:55;2.17;;;1.10;;
9178;SDS011;71287;48.414;11.478;2023-07-20T02:58:23;2.40;;;1.43;;
9178;SDS011;71287;48.414;11.478;2023-07-20T03:00:49;2.53;;;1.00;;
9178;SDS011;71287;48.414;11.478;2023-07-20T03:03:18;1.53;;;1.20;;
9178;SDS011;71287;48.414;11.478;2023-07-20T03:05:45;1.63;;;0.80;;
9178;SDS011;71287;48.414;11.478;2023-07-20T03:08:12;2.80;;;1.00;;
9178;SDS011;71287;48.414;11.478;2023-07-20T03:10:39;3.10;;;1.33;;
9178;SDS011;71287;48.414;11.478;2023-07-20T03:13:06;2.00;;;1.00;;
9178;SDS011;71287;48.414;11.478;2023-07-20T03:15:35;3.20;;;1.00;;
9178;SDS011;71287;48.414;11.478;2023-07-20T03:18:02;1.67;;;1.00;;
9178;SDS011;71287;48.414;11.478;2023-07-20T03:20:29;3.20;;;1.20;;
9178;SDS011;71287;48.414;11.478;2023-07-20T03:22:57;1.20;;;0.90;;
9178;SDS011;71287;48.414;11.478;2023-07-20T03:25:23;1.57;;;0.87;;
9178;SDS011;71287;48.414;11.478;2023-07-20T03:27:50;5.43;;;1.10;;
9178;SDS011;71287;48.414;11.478;2023-07-20T03:30:17;3.60;;;1.17;;
9178;SDS011;71287;48.414;11.478;2023-07-20T03:32:45;1.57;;;1.20;;
9178;SDS011;71287;48.414;11.478;2023-07-20T03:35:12;2.97;;;1.00;;
9178;SDS011;71287;48.414;11.478;2023-07-20T03:37:40;1.60;;;0.90;;
9178;SDS011;71287;48.414;11.478;2023-07-20T03:40:08;4.33;;;1.00;;
9178;SDS011;71287;48.414;11.478;2023-07-20T03:42:35;2.60;;;1.07;;
9178;SDS011;71287;48.414;11.478;2023-07-20T03:45:04;3.83;;;1.00;;
9178;SDS011;71287;48.414;11.478;2023-07-20T03:47:31;2.20;;;0.93;;
9178;SDS011;71287;48.414;11.478;2023-07-20T03:49:59;1.33;;;0.80;;
9178;SDS011;71287;48.414;11.478;2023-07-20T03:52:26;4.30;;;1.17;;
9178;SDS011;71287;48.414;11.478;2023-07-20T03:54:53;3.20;;;0.70;;
9178;SDS011;71287;48.414;11.478;2023-07-20T03:57:20;1.73;;;0.90;;
9178;SDS011;71287;48.414;11.478;2023-07-20T03:59:47;1.80;;;1.00;;
9178;SDS011;71287;48.414;11.478;2023-07-20T04:02:14;2.40;;;1.10;;
9178;SDS011;71287;48.414;11.478;2023-07-20T04:04:41;1.50;;;0.93;;
9178;SDS011;71287;48.414;11.478;2023-07-20T04:07:09;2.20;;;1.00;;
9178;SDS011;71287;48.414;11.478;2023-07-20T04:09:36;1.50;;;0.87;;
9178;SDS011;71287;48.414;11.478;2023-07-20T04:12:03;1.60;;;0.90;;
9178;SDS011;71287;48.414;11.478;2023-07-20T04:14:30;3.53;;;1.20;;
9178;SDS011;71287;48.414;11.478;2023-07-20T04:16:57;1.50;;;0.90;;
9178;SDS011;71287;48.414;11.478;2023-07-20T04:19:25;1.43;;;0.90;;
9178;SDS011;71287;48.414;11.478;2023-07-20T04:21:52;2.43;;;1.00;;
9178;SDS011;71287;48.414;11.478;2023-07-20T04:24:20;3.40;;;1.33;;
9178;SDS011;71287;48.414;11.478;2023-07-20T04:26:47;1.43;;;0.90;;
9178;SDS011;71287;48.414;11.478;2023-07-20T04:29:14;0.80;;;0.80;;
9178;SDS011;71287;48.414;11.478;2023-07-20T04:31:40;0.93;;;0.87;;
9178;SDS011;71287;48.414;11.478;2023-07-20T04:34:07;3.10;;;1.23;;
9178;SDS011;71287;48.414;11.478;2023-07-20T04:36:34;1.73;;;0.80;;
9178;SDS011;71287;48.414;11.478;2023-07-20T04:39:01;1.53;;;1.00;;
9178;SDS011;71287;48.414;11.478;2023-07-20T04:41:29;3.70;;;0.90;;
9178;SDS011;71287;48.414;11.478;2023-07-20T04:43:56;1.13;;;0.70;;
9178;SDS011;71287;48.414;11.478;2023-07-20T04:46:23;2.20;;;1.00;;
9178;SDS011;71287;48.414;11.478;2023-07-20T04:48:49;2.73;;;0.87;;
9178;SDS011;71287;48.414;11.478;2023-07-20T04:51:16;2.40;;;0.80;;
9178;SDS011;71287;48.414;11.478;2023-07-20T04:53:45;2.63;;;1.13;;
9178;SDS011;71287;48.414;11.478;2023-07-20T04:56:12;1.33;;;0.90;;
9178;SDS011;71287;48.414;11.478;2023-07-20T04:58:41;1.50;;;0.80;;
9178;SDS011;71287;48.414;11.478;2023-07-20T05:01:08;1.30;;;1.00;;
9178;SDS011;71287;48.414;11.478;2023-07-20T05:03:35;1.27;;;1.00;;
9178;SDS011;71287;48.414;11.478;2023-07-20T05:06:02;1.20;;;1.10;;
9178;SDS011;71287;48.414;11.478;2023-07-20T05:08:28;0.70;;;0.70;;
9178;SDS011;71287;48.414;11.478;2023-07-20T05:10:55;2.20;;;1.20;;
9178;SDS011;71287;48.414;11.478;2023-07-20T05:13:22;1.43;;;0.80;;
9178;SDS011;71287;48.414;11.478;2023-07-20T05:15:52;1.10;;;1.00;;
9178;SDS011;71287;48.414;11.478;2023-07-20T05:18:19;1.30;;;0.90;;
9178;SDS011;71287;48.414;11.478;2023-07-20T05:20:46;1.40;;;0.90;;
9178;SDS011;71287;48.414;11.478;2023-07-20T05:23:13;1.70;;;0.80;;
9178;SDS011;71287;48.414;11.478;2023-07-20T05:25:40;0.90;;;0.80;;
9178;SDS011;71287;48.414;11.478;2023-07-20T05:28:07;1.90;;;0.90;;
9178;SDS011;71287;48.414;11.478;2023-07-20T05:30:34;1.00;;;0.90;;
9178;SDS011;71287;48.414;11.478;2023-07-20T05:33:02;2.03;;;0.93;;
9178;SDS011;71287;48.414;11.478;2023-07-20T05:35:29;3.10;;;0.93;;
9178;SDS011;71287;48.414;11.478;2023-07-20T05:37:56;2.10;;;1.00;;
9178;SDS011;71287;48.414;11.478;2023-07-20T05:40:23;2.00;;;0.97;;
9178;SDS011;71287;48.414;11.478;2023-07-20T05:42:49;1.27;;;1.00;;
9178;SDS011;71287;48.414;11.478;2023-07-20T05:45:18;3.97;;;1.00;;
9178;SDS011;71287;48.414;11.478;2023-07-20T05:47:45;3.67;;;0.98;;
9178;SDS011;71287;48.414;11.478;2023-07-20T05:50:14;1.63;;;1.10;;
9178;SDS011;71287;48.414;11.478;2023-07-20T05:52:40;1.40;;;1.02;;
9178;SDS011;71287;48.414;11.478;2023-07-20T05:55:07;2.28;;;0.88;;
9178;SDS011;71287;48.414;11.478;2023-07-20T05:57:34;1.42;;;0.98;;
9178;SDS011;71287;48.414;11.478;2023-07-20T06:00:05;2.55;;;1.20;;
9178;SDS011;71287;48.414;11.478;2023-07-20T06:02:33;1.27;;;0.98;;
9178;SDS011;71287;48.414;11.478;2023-07-20T06:05:00;2.92;;;1.08;;
9178;SDS011;71287;48.414;11.478;2023-07-20T06:07:28;1.33;;;0.85;;
9178;SDS011;71287;48.414;11.478;2023-07-20T06:09:55;1.00;;;0.80;;
9178;SDS011;71287;48.414;11.478;2023-07-20T06:12:23;3.00;;;1.00;;
9178;SDS011;71287;48.414;11.478;2023-07-20T06:14:50;2.90;;;1.20;;
9178;SDS011;71287;48.414;11.478;2023-07-20T06:17:16;2.85;;;1.30;;
9178;SDS011;71287;48.414;11.478;2023-07-20T06:19:56;2.17;;;0.80;;
9178;SDS011;71287;48.414;11.478;2023-07-20T06:22:23;2.65;;;0.90;;
9178;SDS011;71287;48.414;11.478;2023-07-20T06:24:51;2.35;;;1.00;;
9178;SDS011;71287;48.414;11.478;2023-07-20T06:27:18;1.42;;;1.00;;
9178;SDS011;71287;48.414;11.478;2023-07-20T06:29:44;1.73;;;1.10;;
9178;SDS011;71287;48.414;11.478;2023-07-20T06:32:11;1.13;;;0.88;;
9178;SDS011;71287;48.414;11.478;2023-07-20T06:34:38;1.58;;;1.20;;
9178;SDS011;71287;48.414;11.478;2023-07-20T06:37:05;1.17;;;0.95;;
9178;SDS011;71287;48.414;11.478;2023-07-20T06:39:32;2.45;;;0.98;;
9178;SDS011;71287;48.414;11.478;2023-07-20T06:42:00;3.13;;;1.40;;
9178;SDS011;71287;48.414;11.478;2023-07-20T06:44:27;3.33;;;1.00;;
9178;SDS011;71287;48.414;11.478;2023-07-20T06:46:54;1.95;;;1.10;;
9178;SDS011;71287;48.414;11.478;2023-07-20T06:49:23;2.00;;;0.85;;
9178;SDS011;71287;48.414;11.478;2023-07-20T06:51:51;3.35;;;1.10;;
9178;SDS011;71287;48.414;11.478;2023-07-20T06:54:18;2.85;;;1.23;;
9178;SDS011;71287;48.414;11.478;2023-07-20T06:56:45;2.60;;;1.20;;
9178;SDS011;71287;48.414;11.478;2023-07-20T06:59:13;2.78;;;1.40;;
9178;SDS011;71287;48.414;11.478;2023-07-20T07:01:40;2.58;;;1.13;;
9178;SDS011;71287;48.414;11.478;2023-07-20T07:04:06;1.63;;;1.08;;
9178;SDS011;71287;48.414;11.478;2023-07-20T07:06:33;1.20;;;1.10;;
9178;SDS011;71287;48.414;11.478;2023-07-20T07:09:02;2.63;;;0.95;;
9178;SDS011;71287;48.414;11.478;2023-07-20T07:11:28;2.78;;;1.15;;
9178;SDS011;71287;48.414;11.478;2023-07-20T07:13:55;1.38;;;0.90;;
9178;SDS011;71287;48.414;11.478;2023-07-20T07:16:23;2.13;;;1.08;;
9178;SDS011;71287;48.414;11.478;2023-07-20T07:18:50;1.38;;;1.20;;
9178;SDS011;71287;48.414;11.478;2023-07-20T07:21:17;1.48;;;1.00;;
9178;SDS011;71287;48.414;11.478;2023-07-20T07:23:44;2.40;;;1.00;;
9178;SDS011;71287;48.414;11.478;2023-07-20T07:26:12;1.67;;;1.05;;
9178;SDS011;71287;48.414;11.478;2023-07-20T07:28:39;1.30;;;0.90;;
9178;SDS011;71287;48.414;11.478;2023-07-20T07:31:05;2.05;;;1.10;;
9178;SDS011;71287;48.414;11.478;2023-07-20T07:33:34;2.25;;;1.00;;
9178;SDS011;71287;48.414;11.478;2023-07-20T07:36:01;1.15;;;0.90;;
9178;SDS011;71287;48.414;11.478;2023-07-20T07:38:27;4.65;;;0.98;;
9178;SDS011;71287;48.414;11.478;2023-07-20T07:40:54;3.05;;;1.10;;
9178;SDS011;71287;48.414;11.478;2023-07-20T07:43:21;1.00;;;0.85;;
9178;SDS011;71287;48.414;11.478;2023-07-20T07:45:48;1.38;;;0.93;;
9178;SDS011;71287;48.414;11.478;2023-07-20T07:48:15;1.27;;;0.93;;
9178;SDS011;71287;48.414;11.478;2023-07-20T07:50:43;1.38;;;0.85;;
9178;SDS011;71287;48.414;11.478;2023-07-20T07:53:10;1.33;;;0.85;;
9178;SDS011;71287;48.414;11.478;2023-07-20T07:55:37;1.70;;;1.00;;
9178;SDS011;71287;48.414;11.478;2023-07-20T07:58:04;1.70;;;1.00;;
9178;SDS011;71287;48.414;11.478;2023-07-20T08:00:30;1.58;;;0.82;;
9178;SDS011;71287;48.414;11.478;2023-07-20T08:02:57;2.42;;;1.00;;
9178;SDS011;71287;48.414;11.478;2023-07-20T08:05:24;0.90;;;0.65;;
9178;SDS011;71287;48.414;11.478;2023-07-20T08:07:52;0.70;;;0.68;;
9178;SDS011;71287;48.414;11.478;2023-07-20T08:10:19;1.23;;;1.00;;
9178;SDS011;71287;48.414;11.478;2023-07-20T08:12:46;0.95;;;0.70;;
9178;SDS011;71287;48.414;11.478;2023-07-20T08:15:13;0.90;;;0.73;;
9178;SDS011;71287;48.414;11.478;2023-07-20T08:17:40;0.85;;;0.80;;
9178;SDS011;71287;48.414;11.478;2023-07-20T08:20:09;2.55;;;1.00;;
9178;SDS011;71287;48.414;11.478;2023-07-20T08:22:37;0.80;;;0.80;;
9178;SDS011;71287;48.414;11.478;2023-07-20T08:25:06;1.65;;;1.00;;
9178;SDS011;71287;48.414;11.478;2023-07-20T08:27:33;1.58;;;0.85;;
9178;SDS011;71287;48.414;11.478;2023-07-20T08:30:00;2.38;;;0.90;;
9178;SDS011;71287;48.414;11.478;2023-07-20T08:32:27;2.03;;;0.90;;
9178;SDS011;71287;48.414;11.478;2023-07-20T08:34:54;0.90;;;0.85;;
9178;SDS011;71287;48.414;11.478;2023-07-20T08:37:22;0.85;;;0.80;;
9178;SDS011;71287;48.414;11.478;2023-07-20T08:39:49;1.23;;;0.60;;
9178;SDS011;71287;48.414;11.478;2023-07-20T08:42:17;2.95;;;0.68;;
9178;SDS011;71287;48.414;11.478;2023-07-20T08:44:44;0.73;;;0.68;;
9178;SDS011;71287;48.414;11.478;2023-07-20T08:47:14;2.65;;;0.70;;
9178;SDS011;71287;48.414;11.478;2023-07-20T08:49:42;1.75;;;0.68;;
9178;SDS011;71287;48.414;11.478;2023-07-20T08:52:09;1.20;;;0.80;;
9178;SDS011;71287;48.414;11.478;2023-07-20T08:54:37;1.30;;;1.20;;
9178;SDS011;71287;48.414;11.478;2023-07-20T08:57:05;0.70;;;0.68;;
9178;SDS011;71287;48.414;11.478;2023-07-20T08:59:34;1.35;;;0.90;;
9178;SDS011;71287;48.414;11.478;2023-07-20T09:02:04;1.63;;;0.80;;
9178;SDS011;71287;48.414;11.478;2023-07-20T09:04:34;1.13;;;0.80;;
9178;SDS011;71287;48.414;11.478;2023-07-20T09:07:01;1.17;;;1.00;;
9178;SDS011;71287;48.414;11.478;2023-07-20T09:09:28;1.17;;;0.75;;
9178;SDS011;71287;48.414;11.478;2023-07-20T09:11:55;1.50;;;0.80;;
9178;SDS011;71287;48.414;11.478;2023-07-20T09:14:21;3.65;;;1.00;;
9178;SDS011;71287;48.414;11.478;2023-07-20T09:16:52;1.60;;;0.80;;
9178;SDS011;71287;48.414;11.478;2023-07-20T09:19:20;1.40;;;0.98;;
9178;SDS011;71287;48.414;11.478;2023-07-20T09:21:47;1.10;;;0.70;;
9178;SDS011;71287;48.414;11.478;2023-07-20T09:24:16;2.13;;;0.82;;
9178;SDS011;71287;48.414;11.478;2023-07-20T09:26:44;0.70;;;0.70;;
9178;SDS011;71287;48.414;11.478;2023-07-20T09:29:13;1.67;;;0.75;;
9178;SDS011;71287;48.414;11.478;2023-07-20T09:31:40;1.10;;;0.80;;
9178;SDS011;71287;48.414;11.478;2023-07-20T09:34:08;1.85;;;1.02;;
9178;SDS011;71287;48.414;11.478;2023-07-20T09:36:35;0.90;;;0.90;;
9178;SDS011;71287;48.414;11.478;2023-07-20T09:39:02;0.90;;;0.82;;
9178;SDS011;71287;48.414;11.478;2023-07-20T09:41:30;1.80;;;0.65;;
9178;SDS011;71287;48.414;11.478;2023-07-20T09:44:06;0.93;;;0.70;;
9178;SDS011;71287;48.414;11.478;2023-07-20T09:46:41;1.38;;;0.77;;
9178;SDS011;71287;48.414;11.478;2023-07-20T09:49:10;1.48;;;1.00;;
9178;SDS011;71287;48.414;11.478;2023-07-20T09:51:37;2.10;;;0.88;;
9178;SDS011;71287;48.414;11.478;2023-07-20T09:54:04;1.17;;;0.80;;
9178;SDS011;71287;48.414;11.478;2023-07-20T09:56:31;1.15;;;0.80;;
9178;SDS011;71287;48.414;11.478;2023-07-20T09:58:59;1.55;;;0.77;;
9178;SDS011;71287;48.414;11.478;2023-07-20T10:01:26;0.85;;;0.70;;
9178;SDS011;71287;48.414;11.478;2023-07-20T10:03:55;2.25;;;0.80;;
9178;SDS011;71287;48.414;11.478;2023-07-20T10:06:27;2.65;;;0.80;;
9178;SDS011;71287;48.414;11.478;2023-07-20T10:08:56;0.80;;;0.70;;
9178;SDS011;71287;48.414;11.478;2023-07-20T10:11:28;3.15;;;0.75;;
9178;SDS011;71287;48.414;11.478;2023-07-20T10:13:56;0.70;;;0.70;;
9178;SDS011;71287;48.414;11.478;2023-07-20T10:16:26;1.48;;;0.70;;
9178;SDS011;71287;48.414;11.478;2023-07-20T10:18:59;1.15;;;0.80;;
9178;SDS011;71287;48.414;11.478;2023-07-20T10:21:30;0.65;;;0.65;;
9178;SDS011;71287;48.414;11.478;2023-07-20T10:24:00;1.35;;;0.80;;
9178;SDS011;71287;48.414;11.478;2023-07-20T10:26:28;0.73;;;0.70;;
9178;SDS011;71287;48.414;11.478;2023-07-20T10:28:55;1.33;;;0.70;;
9178;SDS011;71287;48.414;11.478;2023-07-20T10:31:22;1.08;;;0.98;;
9178;SDS011;71287;48.414;11.478;2023-07-20T10:33:54;1.65;;;0.80;;
9178;SDS011;71287;48.414;11.478;2023-07-20T10:36:24;0.93;;;0.80;;
9178;SDS011;71287;48.414;11.478;2023-07-20T10:38:54;1.23;;;1.00;;
9178;SDS011;71287;48.414;11.478;2023-07-20T10:41:22;1.42;;;0.95;;
9178;SDS011;71287;48.414;11.478;2023-07-20T10:43:57;0.90;;;0.70;;
9178;SDS011;71287;48.414;11.478;2023-07-20T10:46:34;1.77;;;0.90;;
9178;SDS011;71287;48.414;11.478;2023-07-20T10:49:08;1.90;;;1.00;;
9178;SDS011;71287;48.414;11.478;2023-07-20T10:51:39;2.67;;;0.93;;
9178;SDS011;71287;48.414;11.478;2023-07-20T10:54:33;0.88;;;0.60;;
9178;SDS011;71287;48.414;11.478;2023-07-20T10:59:48;2.30;;;0.80;;
9178;SDS011;71287;48.414;11.478;2023-07-20T11:02:17;1.20;;;0.75;;
9178;SDS011;71287;48.414;11.478;2023-07-20T11:04:46;0.85;;;0.82;;
9178;SDS011;71287;48.414;11.478;2023-07-20T11:07:17;1.23;;;0.70;;
9178;SDS011;71287;48.414;11.478;2023-07-20T11:10:13;0.85;;;0.60;;
9178;SDS011;71287;48.414;11.478;2023-07-20T11:12:41;1.55;;;0.90;;
9178;SDS011;71287;48.414;11.478;2023-07-20T11:15:30;1.40;;;0.73;;
9178;SDS011;71287;48.414;11.478;2023-07-20T11:18:11;3.70;;;0.80;;
9178;SDS011;71287;48.414;11.478;2023-07-20T11:20:38;3.67;;;0.70;;
9178;SDS011;71287;48.414;11.478;2023-07-20T11:23:06;0.68;;;0.68;;
9178;SDS011;71287;48.414;11.478;2023-07-20T11:25:39;1.15;;;0.77;;
9178;SDS011;71287;48.414;11.478;2023-07-20T11:28:06;0.85;;;0.77;;
9178;SDS011;71287;48.414;11.478;2023-07-20T11:30:35;1.58;;;0.95;;
9178;SDS011;71287;48.414;11.478;2023-07-20T11:33:02;2.25;;;1.10;;
9178;SDS011;71287;48.414;11.478;2023-07-20T11:35:29;3.70;;;1.10;;
9178;SDS011;71287;48.414;11.478;2023-07-20T11:37:56;1.23;;;0.75;;
9178;SDS011;71287;48.414;11.478;2023-07-20T11:40:23;1.00;;;0.80;;
9178;SDS011;71287;48.414;11.478;2023-07-20T11:42:51;0.93;;;0.88;;
9178;SDS011;71287;48.414;11.478;2023-07-20T11:45:19;1.50;;;0.90;;
9178;SDS011;71287;48.414;11.478;2023-07-20T11:47:46;0.73;;;0.60;;
9178;SDS011;71287;48.414;11.478;2023-07-20T11:50:13;1.10;;;0.90;;
9178;SDS011;71287;48.414;11.478;2023-07-20T11:52:41;1.77;;;0.82;;
9178;SDS011;71287;48.414;11.478;2023-07-20T11:55:08;2.40;;;0.70;;
9178;SDS011;71287;48.414;11.478;2023-07-20T11:57:36;1.17;;;0.85;;
9178;SDS011;71287;48.414;11.478;2023-07-20T12:00:06;1.98;;;0.70;;
9178;SDS011;71287;48.414;11.478;2023-07-20T12:02:37;2.70;;;0.85;;
9178;SDS011;71287;48.414;11.478;2023-07-20T12:05:05;1.00;;;0.88;;
9178;SDS011;71287;48.414;11.478;2023-07-20T12:07:35;2.00;;;0.70;;
9178;SDS011;71287;48.414;11.478;2023-07-20T12:10:05;1.58;;;0.68;;
9178;SDS011;71287;48.414;11.478;2023-07-20T12:12:33;0.98;;;0.82;;
9178;SDS011;71287;48.414;11.478;2023-07-20T12:17:46;0.90;;;0.60;;
9178;SDS011;71287;48.414;11.478;2023-07-20T12:20:24;1.17;;;0.80;;
9178;SDS011;71287;48.414;11.478;2023-07-20T12:22:51;1.95;;;0.80;;
9178;SDS011;71287;48.414;11.478;2023-07-20T12:25:19;1.30;;;0.80;;
9178;SDS011;71287;48.414;11.478;2023-07-20T12:27:47;1.30;;;0.60;;
9178;SDS011;71287;48.414;11.478;2023-07-20T12:30:14;1.23;;;0.77;;
9178;SDS011;71287;48.414;11.478;2023-07-20T12:32:43;0.80;;;0.80;;
9178;SDS011;71287;48.414;11.478;2023-07-20T12:35:10;2.15;;;0.95;;
9178;SDS011;71287;48.414;11.478;2023-07-20T12:37:39;0.68;;;0.68;;
9178;SDS011;71287;48.414;11.478;2023-07-20T12:40:07;1.90;;;0.68;;
9178;SDS011;71287;48.414;11.478;2023-07-20T12:42:35;1.02;;;0.73;;
9178;SDS011;71287;48.414;11.478;2023-07-20T12:45:03;1.77;;;0.90;;
9178;SDS011;71287;48.414;11.478;2023-07-20T12:47:30;1.60;;;0.80;;
9178;SDS011;71287;48.414;11.478;2023-07-20T12:49:59;1.88;;;1.08;;
9178;SDS011;71287;48.414;11.478;2023-07-20T12:52:26;0.80;;;0.80;;
9178;SDS011;71287;48.414;11.478;2023-07-20T12:54:52;1.23;;;0.82;;
9178;SDS011;71287;48.414;11.478;2023-07-20T12:57:19;2.60;;;1.15;;
9178;SDS011;71287;48.414;11.478;2023-07-20T12:59:46;1.98;;;0.80;;
9178;SDS011;71287;48.414;11.478;2023-07-20T13:02:13;1.20;;;0.93;;
9178;SDS011;71287;48.414;11.478;2023-07-20T13:04:39;1.05;;;0.80;;
9178;SDS011;71287;48.414;11.478;2023-07-20T13:07:09;1.30;;;0.90;;
9178;SDS011;71287;48.414;11.478;2023-07-20T13:09:36;1.92;;;0.85;;
9178;SDS011;71287;48.414;11.478;2023-07-20T13:12:03;1.52;;;0.90;;
9178;SDS011;71287;48.414;11.478;2023-07-20T13:14:30;1.75;;;1.00;;
9178;SDS011;71287;48.414;11.478;2023-07-20T13:16:57;0.90;;;0.80;;
9178;SDS011;71287;48.414;11.478;2023-07-20T13:19:24;1.65;;;0.93;;
9178;SDS011;71287;48.414;11.478;2023-07-20T13:21:51;1.35;;;1.05;;
9178;SDS011;71287;48.414;11.478;2023-07-20T13:24:19;2.17;;;0.85;;
9178;SDS011;71287;48.414;11.478;2023-07-20T13:26:46;1.10;;;0.90;;
9178;SDS011;71287;48.414;11.478;2023-07-20T13:29:13;2.00;;;0.70;;
9178;SDS011;71287;48.414;11.478;2023-07-20T13:31:40;0.80;;;0.80;;
9178;SDS011;71287;48.414;11.478;2023-07-20T13:34:06;1.05;;;0.80;;
9178;SDS011;71287;48.414;11.478;2023-07-20T13:36:33;0.82;;;0.65;;
9178;SDS011;71287;48.414;11.478;2023-07-20T13:39:00;1.23;;;1.10;;
9178;SDS011;71287;48.414;11.478;2023-07-20T13:41:31;1.35;;;0.90;;
9178;SDS011;71287;48.414;11.478;2023-07-20T13:43:58;1.35;;;0.88;;
9178;SDS011;71287;48.414;11.478;2023-07-20T13:46:24;1.25;;;0.85;;
9178;SDS011;71287;48.414;11.478;2023-07-20T13:48:51;2.47;;;0.90;;
9178;SDS011;71287;48.414;11.478;2023-07-20T13:51:18;0.95;;;0.70;;
9178;SDS011;71287;48.414;11.478;2023-07-20T13:53:45;1.38;;;0.98;;
9178;SDS011;71287;48.414;11.478;2023-07-20T13:56:12;1.63;;;0.85;;
9178;SDS011;71287;48.414;11.478;2023-07-20T13:58:40;2.63;;;0.85;;
9178;SDS011;71287;48.414;11.478;2023-07-20T14:01:07;1.77;;;0.90;;
9178;SDS011;71287;48.414;11.478;2023-07-20T14:03:34;1.27;;;0.88;;
9178;SDS011;71287;48.414;11.478;2023-07-20T14:06:02;1.65;;;1.08;;
9178;SDS011;71287;48.414;11.478;2023-07-20T14:08:28;1.45;;;0.80;;
9178;SDS011;71287;48.414;11.478;2023-07-20T14:10:55;1.52;;;0.93;;
9178;SDS011;71287;48.414;11.478;2023-07-20T14:13:22;0.82;;;0.82;;
9178;SDS011;71287;48.414;11.478;2023-07-20T14:15:50;0.85;;;0.63;;
9178;SDS011;71287;48.414;11.478;2023-07-20T14:18:17;1.85;;;0.93;;
9178;SDS011;71287;48.414;11.478;2023-07-20T14:20:44;1.95;;;0.80;;
9178;SDS011;71287;48.414;11.478;2023-07-20T14:23:11;1.25;;;0.70;;
9178;SDS011;71287;48.414;11.478;2023-07-20T14:25:37;1.23;;;0.80;;
9178;SDS011;71287;48.414;11.478;2023-07-20T14:28:05;1.95;;;0.98;;
9178;SDS011;71287;48.414;11.478;2023-07-20T14:30:32;2.05;;;0.80;;
9178;SDS011;71287;48.414;11.478;2023-07-20T14:33:00;3.13;;;0.80;;
9178;SDS011;71287;48.414;11.478;2023-07-20T14:35:27;0.80;;;0.80;;
9178;SDS011;71287;48.414;11.478;2023-07-20T14:37:54;1.88;;;0.88;;
9178;SDS011;71287;48.414;11.478;2023-07-20T14:40:20;1.63;;;0.70;;
9178;SDS011;71287;48.414;11.478;2023-07-20T14:42:47;1.05;;;0.80;;
9178;SDS011;71287;48.414;11.478;2023-07-20T14:45:14;0.98;;;0.80;;
9178;SDS011;71287;48.414;11.478;2023-07-20T14:47:41;1.45;;;0.88;;
9178;SDS011;71287;48.414;11.478;2023-07-20T14:50:09;1.30;;;0.70;;
9178;SDS011;71287;48.414;11.478;2023-07-20T14:52:36;2.50;;;1.00;;
9178;SDS011;71287;48.414;11.478;2023-07-20T14:55:04;1.30;;;0.82;;
9178;SDS011;71287;48.414;11.478;2023-07-20T14:57:31;1.02;;;0.80;;
9178;SDS011;71287;48.414;11.478;2023-07-20T14:59:58;2.25;;;0.75;;
9178;SDS011;71287;48.414;11.478;2023-07-20T15:02:25;1.40;;;0.90;;